RJOS(METAR)
02/28 07:00
METAR RJOS 272200Z 30006KT 9999 FEW030 01/M01 Q1026 RMK 1CU030
A3032=
戻る
トップページへ戻る
IMOC Co,.Ltd.